sensor_id;sensor_type;location;lat;lon;timestamp;pressure;altitude;pressure_sealevel;temperature;humidity
31337;BME280;22846;42.654;23.314;2022-11-20T00:01:10;93775.50;;;23.87;52.63
31337;BME280;22846;42.654;23.314;2022-11-20T00:03:36;93740.78;;;23.87;52.75
31337;BME280;22846;42.654;23.314;2022-11-20T00:06:04;93769.28;;;23.86;52.99
31337;BME280;22846;42.654;23.314;2022-11-20T00:08:29;93765.78;;;23.86;52.48
31337;BME280;22846;42.654;23.314;2022-11-20T00:10:55;93773.66;;;23.84;52.59
31337;BME280;22846;42.654;23.314;2022-11-20T00:13:20;93755.78;;;23.83;52.41
31337;BME280;22846;42.654;23.314;2022-11-20T00:15:46;93769.41;;;23.83;53.05
31337;BME280;22846;42.654;23.314;2022-11-20T00:18:11;93762.44;;;23.82;52.14
31337;BME280;22846;42.654;23.314;2022-11-20T00:20:37;93739.13;;;23.81;52.56
31337;BME280;22846;42.654;23.314;2022-11-20T00:23:02;93737.59;;;23.80;52.22
31337;BME280;22846;42.654;23.314;2022-11-20T00:25:28;93735.31;;;23.78;52.17
31337;BME280;22846;42.654;23.314;2022-11-20T00:27:53;93727.13;;;23.78;52.38
31337;BME280;22846;42.654;23.314;2022-11-20T00:30:18;93734.25;;;23.76;52.73
31337;BME280;22846;42.654;23.314;2022-11-20T00:32:44;93727.28;;;23.75;52.81
31337;BME280;22846;42.654;23.314;2022-11-20T00:35:09;93738.19;;;23.75;52.91
31337;BME280;22846;42.654;23.314;2022-11-20T00:37:35;93734.84;;;23.71;52.50
31337;BME280;22846;42.654;23.314;2022-11-20T00:40:00;93729.66;;;23.73;52.58
31337;BME280;22846;42.654;23.314;2022-11-20T00:42:25;93721.47;;;23.73;52.32
31337;BME280;22846;42.654;23.314;2022-11-20T00:44:51;93756.19;;;23.72;52.55
31337;BME280;22846;42.654;23.314;2022-11-20T00:47:16;93772.25;;;23.70;52.54
31337;BME280;22846;42.654;23.314;2022-11-20T00:49:42;93753.16;;;23.70;52.84
31337;BME280;22846;42.654;23.314;2022-11-20T00:52:07;93802.25;;;23.70;52.62
31337;BME280;22846;42.654;23.314;2022-11-20T00:54:33;93768.78;;;23.70;52.33
31337;BME280;22846;42.654;23.314;2022-11-20T00:56:58;93770.00;;;23.69;53.17
31337;BME280;22846;42.654;23.314;2022-11-20T00:59:23;93772.72;;;23.69;53.10
31337;BME280;22846;42.654;23.314;2022-11-20T01:01:49;93748.63;;;23.67;52.14
31337;BME280;22846;42.654;23.314;2022-11-20T01:04:14;93765.00;;;23.67;52.64
31337;BME280;22846;42.654;23.314;2022-11-20T01:06:39;93786.03;;;23.67;52.56
31337;BME280;22846;42.654;23.314;2022-11-20T01:09:10;93749.06;;;23.66;52.31
31337;BME280;22846;42.654;23.314;2022-11-20T01:11:39;93753.00;;;23.65;52.61
31337;BME280;22846;42.654;23.314;2022-11-20T01:14:07;93733.16;;;23.64;52.56
31337;BME280;22846;42.654;23.314;2022-11-20T01:16:36;93743.31;;;23.64;52.63
31337;BME280;22846;42.654;23.314;2022-11-20T01:19:04;93739.09;;;23.63;52.57
31337;BME280;22846;42.654;23.314;2022-11-20T01:21:32;93736.34;;;23.63;52.25
31337;BME280;22846;42.654;23.314;2022-11-20T01:23:58;93735.59;;;23.62;52.65
31337;BME280;22846;42.654;23.314;2022-11-20T01:26:29;93743.03;;;23.62;53.23
31337;BME280;22846;42.654;23.314;2022-11-20T01:28:57;93731.78;;;23.60;52.52
31337;BME280;22846;42.654;23.314;2022-11-20T01:31:32;93730.59;;;23.61;52.91
31337;BME280;22846;42.654;23.314;2022-11-20T01:34:00;93714.97;;;23.61;53.06
31337;BME280;22846;42.654;23.314;2022-11-20T01:36:28;93723.94;;;23.62;53.07
31337;BME280;22846;42.654;23.314;2022-11-20T01:38:55;93716.19;;;23.60;52.55
31337;BME280;22846;42.654;23.314;2022-11-20T01:41:22;93736.47;;;23.59;52.39
31337;BME280;22846;42.654;23.314;2022-11-20T01:44:09;93694.34;;;23.60;53.03
31337;BME280;22846;42.654;23.314;2022-11-20T01:46:36;93715.44;;;23.60;52.73
31337;BME280;22846;42.654;23.314;2022-11-20T01:49:24;93691.34;;;23.58;52.71
31337;BME280;22846;42.654;23.314;2022-11-20T01:51:57;93718.63;;;23.58;52.81
31337;BME280;22846;42.654;23.314;2022-11-20T01:54:29;93671.34;;;23.61;52.64
31337;BME280;22846;42.654;23.314;2022-11-20T01:56:57;93703.00;;;23.59;52.64
31337;BME280;22846;42.654;23.314;2022-11-20T01:59:25;93719.06;;;23.57;52.34
31337;BME280;22846;42.654;23.314;2022-11-20T02:01:52;93703.91;;;23.56;53.16
31337;BME280;22846;42.654;23.314;2022-11-20T02:04:18;93717.53;;;23.56;52.78
31337;BME280;22846;42.654;23.314;2022-11-20T02:06:56;93707.88;;;23.55;52.16
31337;BME280;22846;42.654;23.314;2022-11-20T02:09:23;93718.78;;;23.55;52.60
31337;BME280;22846;42.654;23.314;2022-11-20T02:11:49;93735.13;;;23.55;53.11
31337;BME280;22846;42.654;23.314;2022-11-20T02:14:14;93723.44;;;23.54;52.72
31337;BME280;22846;42.654;23.314;2022-11-20T02:16:45;93730.13;;;23.53;52.86
31337;BME280;22846;42.654;23.314;2022-11-20T02:19:24;93719.22;;;23.53;53.41
31337;BME280;22846;42.654;23.314;2022-11-20T02:24:17;93725.44;;;23.54;52.69
31337;BME280;22846;42.654;23.314;2022-11-20T02:27:09;93733.63;;;23.54;52.56
31337;BME280;22846;42.654;23.314;2022-11-20T02:32:25;93698.59;;;23.52;52.84
31337;BME280;22846;42.654;23.314;2022-11-20T02:34:51;93711.50;;;23.52;53.12
31337;BME280;22846;42.654;23.314;2022-11-20T02:37:16;93745.41;;;23.51;53.06
31337;BME280;22846;42.654;23.314;2022-11-20T02:39:44;93724.34;;;23.51;53.01
31337;BME280;22846;42.654;23.314;2022-11-20T02:42:11;93726.31;;;23.51;52.89
31337;BME280;22846;42.654;23.314;2022-11-20T02:44:36;93740.72;;;23.51;53.09
31337;BME280;22846;42.654;23.314;2022-11-20T02:47:02;93736.78;;;23.52;52.66
31337;BME280;22846;42.654;23.314;2022-11-20T02:49:27;93752.41;;;23.52;53.40
31337;BME280;22846;42.654;23.314;2022-11-20T02:51:53;93756.00;;;23.49;53.23
31337;BME280;22846;42.654;23.314;2022-11-20T02:54:18;93752.84;;;23.50;53.62
31337;BME280;22846;42.654;23.314;2022-11-20T02:56:43;93759.06;;;23.51;53.84
31337;BME280;22846;42.654;23.314;2022-11-20T02:59:09;93738.44;;;23.50;52.71
31337;BME280;22846;42.654;23.314;2022-11-20T03:01:35;93746.63;;;23.50;53.15
31337;BME280;22846;42.654;23.314;2022-11-20T03:04:00;93743.16;;;23.49;53.10
31337;BME280;22846;42.654;23.314;2022-11-20T03:06:26;93772.38;;;23.49;53.09
31337;BME280;22846;42.654;23.314;2022-11-20T03:08:51;93764.19;;;23.49;53.39
31337;BME280;22846;42.654;23.314;2022-11-20T03:11:17;93744.38;;;23.48;53.25
31337;BME280;22846;42.654;23.314;2022-11-20T03:13:43;93740.13;;;23.47;53.96
31337;BME280;22846;42.654;23.314;2022-11-20T03:16:16;93735.41;;;23.48;53.44
31337;BME280;22846;42.654;23.314;2022-11-20T03:18:42;93731.59;;;23.36;53.49
31337;BME280;22846;42.654;23.314;2022-11-20T03:21:10;93761.16;;;23.47;53.39
31337;BME280;22846;42.654;23.314;2022-11-20T03:23:36;93763.59;;;23.45;53.02
31337;BME280;22846;42.654;23.314;2022-11-20T03:26:16;93758.88;;;23.45;53.59
31337;BME280;22846;42.654;23.314;2022-11-20T03:28:47;93766.31;;;23.45;53.47
31337;BME280;22846;42.654;23.314;2022-11-20T03:31:15;93760.56;;;23.43;53.48
31337;BME280;22846;42.654;23.314;2022-11-20T03:33:41;93753.44;;;23.45;53.26
31337;BME280;22846;42.654;23.314;2022-11-20T03:36:09;93771.00;;;23.44;53.54
31337;BME280;22846;42.654;23.314;2022-11-20T03:38:36;93756.31;;;23.42;53.05
31337;BME280;22846;42.654;23.314;2022-11-20T03:41:11;93764.81;;;23.44;52.91
31337;BME280;22846;42.654;23.314;2022-11-20T03:43:37;93775.72;;;23.44;53.08
31337;BME280;22846;42.654;23.314;2022-11-20T03:46:03;93781.47;;;23.46;53.30
31337;BME280;22846;42.654;23.314;2022-11-20T03:48:28;93771.16;;;23.41;53.18
31337;BME280;22846;42.654;23.314;2022-11-20T03:51:10;93788.56;;;23.43;53.58
31337;BME280;22846;42.654;23.314;2022-11-20T03:53:36;93784.63;;;23.44;53.48
31337;BME280;22846;42.654;23.314;2022-11-20T03:56:02;93784.78;;;23.41;53.70
31337;BME280;22846;42.654;23.314;2022-11-20T03:58:27;93789.34;;;23.44;53.74
31337;BME280;22846;42.654;23.314;2022-11-20T04:00:53;93777.66;;;23.43;53.17
31337;BME280;22846;42.654;23.314;2022-11-20T04:03:18;93782.38;;;23.43;53.37
31337;BME280;22846;42.654;23.314;2022-11-20T04:05:43;93789.78;;;23.42;53.17
31337;BME280;22846;42.654;23.314;2022-11-20T04:08:09;93786.31;;;23.42;53.33
31337;BME280;22846;42.654;23.314;2022-11-20T04:10:34;93799.19;;;23.41;53.49
31337;BME280;22846;42.654;23.314;2022-11-20T04:13:00;93795.69;;;23.41;53.69
31337;BME280;22846;42.654;23.314;2022-11-20T04:15:25;93770.38;;;23.31;53.20
31337;BME280;22846;42.654;23.314;2022-11-20T04:17:50;93789.47;;;23.40;53.86
31337;BME280;22846;42.654;23.314;2022-11-20T04:20:16;93790.22;;;23.41;53.38
31337;BME280;22846;42.654;23.314;2022-11-20T04:22:41;93794.16;;;23.40;53.46
31337;BME280;22846;42.654;23.314;2022-11-20T04:25:07;93796.88;;;23.40;53.86
31337;BME280;22846;42.654;23.314;2022-11-20T04:27:32;93805.06;;;23.40;53.51
31337;BME280;22846;42.654;23.314;2022-11-20T04:29:58;93812.50;;;23.39;53.46
31337;BME280;22846;42.654;23.314;2022-11-20T04:32:23;93813.25;;;23.40;53.59
31337;BME280;22846;42.654;23.314;2022-11-20T04:34:49;93811.72;;;23.39;53.05
31337;BME280;22846;42.654;23.314;2022-11-20T04:37:14;93804.75;;;23.38;53.46
31337;BME280;22846;42.654;23.314;2022-11-20T04:39:39;93802.81;;;23.38;53.38
31337;BME280;22846;42.654;23.314;2022-11-20T04:42:05;93787.19;;;23.39;53.44
31337;BME280;22846;42.654;23.314;2022-11-20T04:44:49;93802.81;;;23.38;53.01
31337;BME280;22846;42.654;23.314;2022-11-20T04:47:14;93794.63;;;23.38;53.11
31337;BME280;22846;42.654;23.314;2022-11-20T04:49:40;93791.91;;;23.38;52.99
31337;BME280;22846;42.654;23.314;2022-11-20T04:52:05;93793.84;;;23.38;53.33
31337;BME280;22846;42.654;23.314;2022-11-20T04:54:30;93807.47;;;23.38;53.04
31337;BME280;22846;42.654;23.314;2022-11-20T04:56:56;93812.94;;;23.38;53.00
31337;BME280;22846;42.654;23.314;2022-11-20T04:59:21;93793.09;;;23.37;53.32
31337;BME280;22846;42.654;23.314;2022-11-20T05:01:47;93774.75;;;23.38;52.93
31337;BME280;22846;42.654;23.314;2022-11-20T05:04:12;93773.28;;;23.37;53.23
31337;BME280;22846;42.654;23.314;2022-11-20T05:06:38;93783.88;;;23.35;52.94
31337;BME280;22846;42.654;23.314;2022-11-20T05:09:03;93803.25;;;23.37;53.10
31337;BME280;22846;42.654;23.314;2022-11-20T05:11:29;93774.03;;;23.37;52.97
31337;BME280;22846;42.654;23.314;2022-11-20T05:13:54;93776.75;;;23.37;52.79
31337;BME280;22846;42.654;23.314;2022-11-20T05:16:23;93749.16;;;23.35;53.15
31337;BME280;22846;42.654;23.314;2022-11-20T05:18:50;93769.03;;;23.36;52.55
31337;BME280;22846;42.654;23.314;2022-11-20T05:21:16;93764.31;;;23.36;52.92
31337;BME280;22846;42.654;23.314;2022-11-20T05:23:43;93751.91;;;23.35;53.00
31337;BME280;22846;42.654;23.314;2022-11-20T05:26:13;93742.97;;;23.35;52.95
31337;BME280;22846;42.654;23.314;2022-11-20T05:28:39;93746.44;;;23.35;52.65
31337;BME280;22846;42.654;23.314;2022-11-20T05:31:06;93740.25;;;23.35;52.82
31337;BME280;22846;42.654;23.314;2022-11-20T05:33:33;93719.94;;;23.36;52.79
31337;BME280;22846;42.654;23.314;2022-11-20T05:35:59;93747.22;;;23.36;53.01
31337;BME280;22846;42.654;23.314;2022-11-20T05:38:24;93749.94;;;23.36;52.88
31337;BME280;22846;42.654;23.314;2022-11-20T05:40:49;93742.97;;;23.35;52.88
31337;BME280;22846;42.654;23.314;2022-11-20T05:43:15;93738.25;;;23.35;52.98
31337;BME280;22846;42.654;23.314;2022-11-20T05:45:40;93717.22;;;23.36;52.48
31337;BME280;22846;42.654;23.314;2022-11-20T05:48:06;93740.25;;;23.35;52.92
31337;BME280;22846;42.654;23.314;2022-11-20T05:50:31;93727.34;;;23.35;52.66
31337;BME280;22846;42.654;23.314;2022-11-20T05:53:00;93719.16;;;23.26;52.69
31337;BME280;22846;42.654;23.314;2022-11-20T05:55:26;93726.59;;;23.35;52.77
31337;BME280;22846;42.654;23.314;2022-11-20T05:57:53;93740.22;;;23.26;53.08
31337;BME280;22846;42.654;23.314;2022-11-20T06:00:20;93742.19;;;23.34;52.83
31337;BME280;22846;42.654;23.314;2022-11-20T06:02:45;93769.44;;;23.34;52.86
31337;BME280;22846;42.654;23.314;2022-11-20T06:05:10;93759.31;;;23.35;53.15
31337;BME280;22846;42.654;23.314;2022-11-20T06:07:36;93768.72;;;23.34;52.91
31337;BME280;22846;42.654;23.314;2022-11-20T06:10:01;93766.72;;;23.34;52.92
31337;BME280;22846;42.654;23.314;2022-11-20T06:12:27;93752.34;;;23.34;53.04
31337;BME280;22846;42.654;23.314;2022-11-20T06:14:52;93771.44;;;23.34;52.93
31337;BME280;22846;42.654;23.314;2022-11-20T06:17:17;93777.63;;;23.34;52.98
31337;BME280;22846;42.654;23.314;2022-11-20T06:19:43;93761.28;;;23.34;53.06
31337;BME280;22846;42.654;23.314;2022-11-20T06:22:08;93767.50;;;23.35;52.80
31337;BME280;22846;42.654;23.314;2022-11-20T06:24:34;93787.78;;;23.34;52.79
31337;BME280;22846;42.654;23.314;2022-11-20T06:26:59;93791.25;;;23.34;53.22
31337;BME280;22846;42.654;23.314;2022-11-20T06:29:24;93797.50;;;23.35;52.83
31337;BME280;22846;42.654;23.314;2022-11-20T06:31:50;93809.91;;;23.36;53.09
31337;BME280;22846;42.654;23.314;2022-11-20T06:34:15;93812.66;;;23.36;52.92
31337;BME280;22846;42.654;23.314;2022-11-20T06:36:41;93790.06;;;23.35;52.98
31337;BME280;22846;42.654;23.314;2022-11-20T06:39:06;93805.22;;;23.36;52.90
31337;BME280;22846;42.654;23.314;2022-11-20T06:41:32;93801.75;;;23.36;53.20
31337;BME280;22846;42.654;23.314;2022-11-20T06:43:57;93789.63;;;23.37;53.49
31337;BME280;22846;42.654;23.314;2022-11-20T06:46:22;93810.97;;;23.38;53.08
31337;BME280;22846;42.654;23.314;2022-11-20T06:48:48;93798.09;;;23.39;52.73
31337;BME280;22846;42.654;23.314;2022-11-20T06:51:14;93821.75;;;23.42;53.54
31337;BME280;22846;42.654;23.314;2022-11-20T06:53:40;93819.00;;;23.42;53.45
31337;BME280;22846;42.654;23.314;2022-11-20T06:56:06;93800.84;;;23.48;53.19
31337;BME280;22846;42.654;23.314;2022-11-20T06:58:33;93797.53;;;23.53;52.88
31337;BME280;22846;42.654;23.314;2022-11-20T07:01:01;93806.16;;;23.51;52.95
31337;BME280;22846;42.654;23.314;2022-11-20T07:03:26;93826.03;;;23.61;53.12
31337;BME280;22846;42.654;23.314;2022-11-20T07:05:57;93816.94;;;23.64;53.30
31337;BME280;22846;42.654;23.314;2022-11-20T07:08:23;93817.25;;;23.66;52.92
31337;BME280;22846;42.654;23.314;2022-11-20T07:10:49;93818.78;;;23.67;53.05
31337;BME280;22846;42.654;23.314;2022-11-20T07:13:14;93824.22;;;23.67;53.07
31337;BME280;22846;42.654;23.314;2022-11-20T07:15:40;93819.56;;;23.67;53.14
31337;BME280;22846;42.654;23.314;2022-11-20T07:18:05;93823.91;;;23.65;52.74
31337;BME280;22846;42.654;23.314;2022-11-20T07:20:31;93816.81;;;23.67;52.87
31337;BME280;22846;42.654;23.314;2022-11-20T07:22:57;93828.16;;;23.66;53.30
31337;BME280;22846;42.654;23.314;2022-11-20T07:25:26;93814.53;;;23.66;53.38
31337;BME280;22846;42.654;23.314;2022-11-20T07:27:52;93827.41;;;23.65;53.68
31337;BME280;22846;42.654;23.314;2022-11-20T07:30:18;93826.34;;;23.54;53.06
31337;BME280;22846;42.654;23.314;2022-11-20T07:32:47;93833.03;;;23.62;53.60
31337;BME280;22846;42.654;23.314;2022-11-20T07:35:15;93819.06;;;23.60;53.34
31337;BME280;22846;42.654;23.314;2022-11-20T07:37:41;93825.59;;;23.62;53.31
31337;BME280;22846;42.654;23.314;2022-11-20T07:40:06;93826.03;;;23.61;53.41
31337;BME280;22846;42.654;23.314;2022-11-20T07:42:32;93831.50;;;23.61;53.09
31337;BME280;22846;42.654;23.314;2022-11-20T07:44:57;93819.81;;;23.60;53.54
31337;BME280;22846;42.654;23.314;2022-11-20T07:47:24;93828.47;;;23.59;53.40
31337;BME280;22846;42.654;23.314;2022-11-20T07:49:50;93832.72;;;23.60;53.68
31337;BME280;22846;42.654;23.314;2022-11-20T07:52:15;93829.19;;;23.59;54.14
31337;BME280;22846;42.654;23.314;2022-11-20T07:54:40;93821.50;;;23.67;53.53
31337;BME280;22846;42.654;23.314;2022-11-20T07:57:06;93837.19;;;23.75;53.92
31337;BME280;22846;42.654;23.314;2022-11-20T07:59:31;93848.25;;;23.90;52.85
31337;BME280;22846;42.654;23.314;2022-11-20T08:01:57;93850.41;;;23.94;52.06
31337;BME280;22846;42.654;23.314;2022-11-20T08:04:22;93843.75;;;24.04;52.45
31337;BME280;22846;42.654;23.314;2022-11-20T08:06:48;93842.66;;;24.11;52.41
31337;BME280;22846;42.654;23.314;2022-11-20T08:09:14;93828.28;;;24.10;52.57
31337;BME280;22846;42.654;23.314;2022-11-20T08:11:39;93844.34;;;24.08;52.64
31337;BME280;22846;42.654;23.314;2022-11-20T08:14:23;93820.69;;;24.05;52.55
31337;BME280;22846;42.654;23.314;2022-11-20T08:16:49;93808.09;;;23.99;52.93
31337;BME280;22846;42.654;23.314;2022-11-20T08:19:16;93821.75;;;24.08;53.06
31337;BME280;22846;42.654;23.314;2022-11-20T08:21:42;93829.50;;;24.18;53.08
31337;BME280;22846;42.654;23.314;2022-11-20T08:24:08;93838.31;;;24.22;52.61
31337;BME280;22846;42.654;23.314;2022-11-20T08:26:35;93856.19;;;24.23;52.48
31337;BME280;22846;42.654;23.314;2022-11-20T08:29:02;93854.94;;;24.15;52.59
31337;BME280;22846;42.654;23.314;2022-11-20T08:31:28;93879.69;;;24.21;52.84
31337;BME280;22846;42.654;23.314;2022-11-20T08:33:55;93864.50;;;24.20;52.86
31337;BME280;22846;42.654;23.314;2022-11-20T08:36:21;93860.13;;;24.22;52.81
31337;BME280;22846;42.654;23.314;2022-11-20T08:38:56;93865.75;;;24.28;52.49
31337;BME280;22846;42.654;23.314;2022-11-20T08:41:21;93863.16;;;24.33;52.82
31337;BME280;22846;42.654;23.314;2022-11-20T08:43:52;93879.84;;;24.35;52.37
31337;BME280;22846;42.654;23.314;2022-11-20T08:46:17;93882.28;;;24.33;52.26
31337;BME280;22846;42.654;23.314;2022-11-20T08:48:43;93901.84;;;24.32;52.61
31337;BME280;22846;42.654;23.314;2022-11-20T08:51:09;93903.53;;;24.29;52.25
31337;BME280;22846;42.654;23.314;2022-11-20T08:53:34;93905.19;;;24.27;52.36
31337;BME280;22846;42.654;23.314;2022-11-20T08:55:59;93897.28;;;24.29;52.83
31337;BME280;22846;42.654;23.314;2022-11-20T08:58:25;93898.66;;;24.33;52.49
31337;BME280;22846;42.654;23.314;2022-11-20T09:00:51;93882.44;;;24.39;52.45
31337;BME280;22846;42.654;23.314;2022-11-20T09:03:16;93875.44;;;24.38;52.11
31337;BME280;22846;42.654;23.314;2022-11-20T09:05:42;93897.91;;;24.33;52.26
31337;BME280;22846;42.654;23.314;2022-11-20T09:08:08;93905.03;;;24.30;52.36
31337;BME280;22846;42.654;23.314;2022-11-20T09:10:33;93905.63;;;24.25;52.20
31337;BME280;22846;42.654;23.314;2022-11-20T09:12:59;93906.09;;;24.24;52.59
31337;BME280;22846;42.654;23.314;2022-11-20T09:15:25;93889.41;;;24.22;51.68
31337;BME280;22846;42.654;23.314;2022-11-20T09:17:55;93868.59;;;24.24;52.43
31337;BME280;22846;42.654;23.314;2022-11-20T09:20:21;93887.88;;;24.30;51.93
31337;BME280;22846;42.654;23.314;2022-11-20T09:22:47;93882.28;;;24.33;52.02
31337;BME280;22846;42.654;23.314;2022-11-20T09:25:13;93886.84;;;24.36;52.10
31337;BME280;22846;42.654;23.314;2022-11-20T09:27:38;93882.91;;;24.37;52.03
31337;BME280;22846;42.654;23.314;2022-11-20T09:30:04;93874.84;;;24.34;52.21
31337;BME280;22846;42.654;23.314;2022-11-20T09:32:30;93878.03;;;24.32;52.62
31337;BME280;22846;42.654;23.314;2022-11-20T09:34:55;93882.69;;;24.05;53.55
31337;BME280;22846;42.654;23.314;2022-11-20T09:37:21;93856.78;;;24.18;52.89
31337;BME280;22846;42.654;23.314;2022-11-20T09:39:46;93853.47;;;24.23;47.60
31337;BME280;22846;42.654;23.314;2022-11-20T09:55:42;93833.19;;;23.19;51.46
31337;BME280;22846;42.654;23.314;2022-11-20T09:58:15;93835.03;;;23.31;52.10
31337;BME280;22846;42.654;23.314;2022-11-20T10:00:42;93850.72;;;23.48;52.41
31337;BME280;22846;42.654;23.314;2022-11-20T10:03:15;93852.56;;;23.69;52.48
31337;BME280;22846;42.654;23.314;2022-11-20T10:05:48;93845.97;;;23.88;52.68
31337;BME280;22846;42.654;23.314;2022-11-20T10:08:19;93833.25;;;24.03;53.05
31337;BME280;22846;42.654;23.314;2022-11-20T10:10:52;93833.44;;;24.17;52.69
31337;BME280;22846;42.654;23.314;2022-11-20T10:13:43;93823.44;;;24.23;52.55
31337;BME280;22846;42.654;23.314;2022-11-20T10:29:32;93831.31;;;24.39;54.01
31337;BME280;22846;42.654;23.314;2022-11-20T10:32:16;93829.34;;;24.40;53.59
31337;BME280;22846;42.654;23.314;2022-11-20T10:35:20;93819.63;;;24.39;54.29
31337;BME280;22846;42.654;23.314;2022-11-20T10:37:52;93827.97;;;24.35;54.28
31337;BME280;22846;42.654;23.314;2022-11-20T10:40:48;93816.88;;;24.21;54.55
31337;BME280;22846;42.654;23.314;2022-11-20T10:43:29;93830.38;;;24.24;54.11
31337;BME280;22846;42.654;23.314;2022-11-20T10:46:06;93831.75;;;24.29;54.52
31337;BME280;22846;42.654;23.314;2022-11-20T10:48:34;93824.94;;;24.33;54.33
31337;BME280;22846;42.654;23.314;2022-11-20T10:54:41;93836.50;;;24.46;56.17
31337;BME280;22846;42.654;23.314;2022-11-20T11:00:07;93857.25;;;24.35;55.00
31337;BME280;22846;42.654;23.314;2022-11-20T11:02:35;93858.47;;;24.34;55.76
31337;BME280;22846;42.654;23.314;2022-11-20T11:05:25;93870.75;;;24.29;55.88
31337;BME280;22846;42.654;23.314;2022-11-20T11:07:56;93887.59;;;24.28;56.62
31337;BME280;22846;42.654;23.314;2022-11-20T11:10:53;93915.47;;;24.14;56.49
31337;BME280;22846;42.654;23.314;2022-11-20T11:15:49;93934.47;;;24.35;56.63
31337;BME280;22846;42.654;23.314;2022-11-20T11:18:31;93898.38;;;24.40;56.38
31337;BME280;22846;42.654;23.314;2022-11-20T11:20:59;93910.69;;;24.45;56.75
31337;BME280;22846;42.654;23.314;2022-11-20T11:23:39;93904.13;;;24.33;53.95
31337;BME280;22846;42.654;23.314;2022-11-20T11:26:07;93861.78;;;24.29;55.59
31337;BME280;22846;42.654;23.314;2022-11-20T11:29:34;93860.41;;;24.24;56.13
31337;BME280;22846;42.654;23.314;2022-11-20T11:31:40;93887.88;;;24.21;56.65
31337;BME280;22846;42.654;23.314;2022-11-20T11:34:08;93864.97;;;24.18;57.06
31337;BME280;22846;42.654;23.314;2022-11-20T11:36:36;93872.09;;;24.16;56.79
31337;BME280;22846;42.654;23.314;2022-11-20T11:39:03;93855.41;;;24.14;57.51
31337;BME280;22846;42.654;23.314;2022-11-20T11:41:32;93851.31;;;24.09;57.21
31337;BME280;22846;42.654;23.314;2022-11-20T11:44:18;93837.34;;;24.07;57.19
31337;BME280;22846;42.654;23.314;2022-11-20T11:47:05;93834.34;;;24.05;57.83
31337;BME280;22846;42.654;23.314;2022-11-20T11:49:34;93852.69;;;24.05;58.28
31337;BME280;22846;42.654;23.314;2022-11-20T11:52:17;93848.88;;;24.02;57.85
31337;BME280;22846;42.654;23.314;2022-11-20T11:54:53;93823.81;;;23.77;57.10
31337;BME280;22846;42.654;23.314;2022-11-20T11:57:46;93849.50;;;23.97;56.86
31337;BME280;22846;42.654;23.314;2022-11-20T12:00:16;93837.06;;;23.96;57.69
31337;BME280;22846;42.654;23.314;2022-11-20T12:05:27;93806.72;;;23.94;57.76
31337;BME280;22846;42.654;23.314;2022-11-20T12:08:00;93798.22;;;23.92;57.88
31337;BME280;22846;42.654;23.314;2022-11-20T12:13:27;93842.03;;;23.89;58.03
31337;BME280;22846;42.654;23.314;2022-11-20T12:15:54;93825.66;;;23.89;57.93
31337;BME280;22846;42.654;23.314;2022-11-20T12:18:21;93846.75;;;23.89;58.74
31337;BME280;22846;42.654;23.314;2022-11-20T12:32:03;93859.44;;;23.83;58.30
31337;BME280;22846;42.654;23.314;2022-11-20T12:34:47;93843.09;;;23.83;57.92
31337;BME280;22846;42.654;23.314;2022-11-20T12:43:29;93750.94;;;23.78;58.17
31337;BME280;22846;42.654;23.314;2022-11-20T12:49:20;93724.56;;;23.75;58.54
31337;BME280;22846;42.654;23.314;2022-11-20T13:03:04;93793.41;;;23.96;59.28
31337;BME280;22846;42.654;23.314;2022-11-20T13:08:38;93797.50;;;23.92;58.73
31337;BME280;22846;42.654;23.314;2022-11-20T13:11:17;93807.31;;;23.90;58.00
31337;BME280;22846;42.654;23.314;2022-11-20T13:14:09;93821.88;;;23.87;58.58
31337;BME280;22846;42.654;23.314;2022-11-20T13:16:53;93828.88;;;23.88;58.45
31337;BME280;22846;42.654;23.314;2022-11-20T13:19:21;93807.63;;;23.92;58.68
31337;BME280;22846;42.654;23.314;2022-11-20T13:21:48;93801.88;;;23.98;58.49
31337;BME280;22846;42.654;23.314;2022-11-20T13:29:44;93821.44;;;24.15;57.81
31337;BME280;22846;42.654;23.314;2022-11-20T13:32:17;93799.75;;;24.20;57.68
31337;BME280;22846;42.654;23.314;2022-11-20T13:34:58;93819.91;;;24.05;57.74
31337;BME280;22846;42.654;23.314;2022-11-20T13:37:34;93839.66;;;24.27;57.37
31337;BME280;22846;42.654;23.314;2022-11-20T13:42:35;93833.59;;;24.32;57.44
31337;BME280;22846;42.654;23.314;2022-11-20T13:45:10;93837.38;;;24.34;57.40
31337;BME280;22846;42.654;23.314;2022-11-20T13:47:36;93834.94;;;24.36;57.13
31337;BME280;22846;42.654;23.314;2022-11-20T13:50:03;93836.00;;;24.39;57.26
31337;BME280;22846;42.654;23.314;2022-11-20T13:58:07;93846.66;;;24.46;57.44
31337;BME280;22846;42.654;23.314;2022-11-20T14:00:48;93860.19;;;24.49;57.37
31337;BME280;22846;42.654;23.314;2022-11-20T14:03:21;93864.41;;;24.50;57.39
31337;BME280;22846;42.654;23.314;2022-11-20T14:06:01;93850.91;;;24.47;56.07
31337;BME280;22846;42.654;23.314;2022-11-20T14:08:40;93850.88;;;24.38;56.88
31337;BME280;22846;42.654;23.314;2022-11-20T14:11:18;93846.34;;;24.35;57.31
31337;BME280;22846;42.654;23.314;2022-11-20T14:16:33;93841.19;;;24.28;54.92
31337;BME280;22846;42.654;23.314;2022-11-20T14:21:45;93847.53;;;24.43;56.17
31337;BME280;22846;42.654;23.314;2022-11-20T14:24:11;93838.03;;;24.47;56.56
31337;BME280;22846;42.654;23.314;2022-11-20T14:26:41;93834.66;;;24.52;56.49
31337;BME280;22846;42.654;23.314;2022-11-20T14:29:28;93839.53;;;24.57;56.15
31337;BME280;22846;42.654;23.314;2022-11-20T14:31:55;93833.00;;;24.37;45.97
31337;BME280;22846;42.654;23.314;2022-11-20T14:34:24;93844.66;;;24.19;51.98
31337;BME280;22846;42.654;23.314;2022-11-20T14:36:55;93844.81;;;24.16;53.95
31337;BME280;22846;42.654;23.314;2022-11-20T14:39:24;93831.31;;;24.12;54.41